createdAt,value
2022-11-19T00:01:26.650Z,73.30
2022-11-19T00:03:54.144Z,72.90
2022-11-19T00:06:23.605Z,73.00
2022-11-19T00:08:50.467Z,73.00
2022-11-19T00:11:38.759Z,73.10
2022-11-19T00:14:06.009Z,73.30
2022-11-19T00:16:33.122Z,73.10
2022-11-19T00:19:00.013Z,73.00
2022-11-19T00:21:26.970Z,73.00
2022-11-19T00:23:54.866Z,73.00
2022-11-19T00:26:22.165Z,73.00
2022-11-19T00:28:49.328Z,73.00
2022-11-19T00:31:17.257Z,73.00
2022-11-19T00:33:45.291Z,73.00
2022-11-19T00:36:14.443Z,72.90
2022-11-19T00:38:41.645Z,72.90
2022-11-19T00:41:08.550Z,73.10
2022-11-19T00:43:47.705Z,72.90
2022-11-19T00:46:26.181Z,72.90
2022-11-19T00:48:55.033Z,73.10
2022-11-19T00:51:26.103Z,73.10
2022-11-19T00:53:53.473Z,73.00
2022-11-19T00:56:22.642Z,73.00
2022-11-19T00:58:50.189Z,72.90
2022-11-19T01:01:19.295Z,72.80
2022-11-19T01:03:46.489Z,73.00
2022-11-19T01:06:19.076Z,72.90
2022-11-19T01:08:47.164Z,72.80
2022-11-19T01:11:17.861Z,72.70
2022-11-19T01:13:45.580Z,72.60
2022-11-19T01:16:24.139Z,72.90
2022-11-19T01:18:51.805Z,72.70
2022-11-19T01:21:20.567Z,72.80
2022-11-19T01:23:48.277Z,72.80
2022-11-19T01:26:16.283Z,72.70
2022-11-19T01:28:44.071Z,72.70
2022-11-19T01:31:12.502Z,72.50
2022-11-19T01:33:39.773Z,72.60
2022-11-19T01:36:10.830Z,72.70
2022-11-19T01:38:37.765Z,72.50
2022-11-19T01:41:05.275Z,72.70
2022-11-19T01:43:59.003Z,72.80
2022-11-19T01:46:29.221Z,72.80
2022-11-19T01:49:16.770Z,73.80
2022-11-19T01:52:02.123Z,72.80
2022-11-19T01:54:41.206Z,72.90
2022-11-19T01:57:11.203Z,72.80
2022-11-19T01:59:39.265Z,72.60
2022-11-19T02:02:06.261Z,72.30
2022-11-19T02:04:35.162Z,72.70
2022-11-19T02:07:02.624Z,72.70
2022-11-19T02:09:30.097Z,72.50
2022-11-19T02:12:03.127Z,72.70
2022-11-19T02:14:54.666Z,72.90
2022-11-19T02:17:31.061Z,72.90
2022-11-19T02:20:19.004Z,72.60
2022-11-19T02:23:01.643Z,72.60
2022-11-19T02:26:14.240Z,72.50
2022-11-19T02:28:55.936Z,72.70
2022-11-19T02:32:01.973Z,72.70
2022-11-19T02:34:42.610Z,72.80
2022-11-19T02:37:16.406Z,72.60
2022-11-19T02:40:17.190Z,72.40
2022-11-19T02:42:52.188Z,72.10
2022-11-19T02:45:44.496Z,72.20
2022-11-19T02:48:21.437Z,72.20
2022-11-19T02:50:58.078Z,71.90
2022-11-19T02:53:24.982Z,71.70
2022-11-19T02:56:10.439Z,71.70
2022-11-19T02:59:09.409Z,71.40
2022-11-19T03:02:00.830Z,71.10
2022-11-19T03:04:32.559Z,71.40
2022-11-19T03:07:06.919Z,71.50
2022-11-19T03:09:38.310Z,71.50
2022-11-19T03:12:44.893Z,71.50
2022-11-19T03:15:42.394Z,71.60
2022-11-19T03:18:20.916Z,71.50
2022-11-19T03:20:55.360Z,71.30
2022-11-19T03:23:42.943Z,71.40
2022-11-19T03:26:26.898Z,71.40
2022-11-19T03:28:55.933Z,71.50
2022-11-19T03:31:25.103Z,70.80
2022-11-19T03:33:55.446Z,70.60
2022-11-19T03:36:26.934Z,70.80
2022-11-19T03:39:00.472Z,70.70
2022-11-19T03:41:28.775Z,70.70
2022-11-19T03:44:03.466Z,70.50
2022-11-19T03:46:34.480Z,70.50
2022-11-19T03:49:03.719Z,70.50
2022-11-19T03:51:41.702Z,70.30
2022-11-19T03:54:09.217Z,70.30
2022-11-19T03:56:39.483Z,70.40
2022-11-19T03:59:08.480Z,71.40
2022-11-19T04:01:36.656Z,70.40
2022-11-19T04:04:23.093Z,70.50
2022-11-19T04:06:50.264Z,70.70
2022-11-19T04:09:17.612Z,70.20
2022-11-19T04:14:11.418Z,70.50
2022-11-19T04:16:38.457Z,70.30
2022-11-19T04:19:05.737Z,70.30
2022-11-19T04:21:32.564Z,70.40
2022-11-19T04:23:59.393Z,70.40
2022-11-19T04:26:26.202Z,70.30
2022-11-19T04:28:53.375Z,70.20
2022-11-19T04:31:20.237Z,69.90
2022-11-19T04:33:47.032Z,69.90
2022-11-19T04:36:13.816Z,70.00
2022-11-19T04:38:40.650Z,70.10
2022-11-19T04:41:07.488Z,70.30
2022-11-19T04:43:34.548Z,70.30
2022-11-19T04:46:01.522Z,70.30
2022-11-19T04:48:28.421Z,70.10
2022-11-19T04:50:55.318Z,69.40
2022-11-19T04:53:22.264Z,69.70
2022-11-19T04:55:49.164Z,69.50
2022-11-19T04:58:15.995Z,69.60
2022-11-19T05:00:42.923Z,69.80
2022-11-19T05:03:09.809Z,70.00
2022-11-19T05:05:36.738Z,69.80
2022-11-19T05:08:03.692Z,70.10
2022-11-19T05:10:30.546Z,70.20
2022-11-19T05:12:57.435Z,69.80
2022-11-19T05:15:24.344Z,69.50
2022-11-19T05:17:51.233Z,69.90
2022-11-19T05:20:18.138Z,70.10
2022-11-19T05:22:45.032Z,69.80
2022-11-19T05:25:11.935Z,69.90
2022-11-19T05:27:38.962Z,70.10
2022-11-19T05:30:06.471Z,69.90
2022-11-19T05:32:33.411Z,69.50
2022-11-19T05:35:00.354Z,69.80
2022-11-19T05:37:27.240Z,69.70
2022-11-19T05:39:54.121Z,69.50
2022-11-19T05:42:20.933Z,69.60
2022-11-19T05:44:47.983Z,69.40
2022-11-19T05:47:19.268Z,69.60
2022-11-19T05:49:46.118Z,69.60
2022-11-19T05:52:13.072Z,69.70
2022-11-19T05:54:40.002Z,69.70
2022-11-19T05:57:06.841Z,69.70
2022-11-19T05:59:33.740Z,69.80
2022-11-19T06:02:00.601Z,70.10
2022-11-19T06:04:27.459Z,69.90
2022-11-19T06:06:54.378Z,69.70
2022-11-19T06:09:21.665Z,69.40
2022-11-19T06:11:48.999Z,69.80
2022-11-19T06:14:24.825Z,69.60
2022-11-19T06:16:56.615Z,69.70
2022-11-19T06:19:24.401Z,69.70
2022-11-19T06:21:52.419Z,69.60
2022-11-19T06:24:19.707Z,69.50
2022-11-19T06:26:46.832Z,69.40
2022-11-19T06:29:15.743Z,69.60
2022-11-19T06:31:43.021Z,69.60
2022-11-19T06:34:10.590Z,69.10
2022-11-19T06:36:42.788Z,68.90
2022-11-19T06:39:11.884Z,68.90
2022-11-19T06:41:38.787Z,69.50
2022-11-19T06:44:05.757Z,69.10
2022-11-19T06:46:32.593Z,69.10
2022-11-19T06:48:59.489Z,68.90
2022-11-19T06:51:26.357Z,69.00
2022-11-19T06:53:53.186Z,69.00
2022-11-19T06:56:20.064Z,69.00
2022-11-19T06:58:46.909Z,69.10
2022-11-19T07:01:15.183Z,69.30
2022-11-19T07:03:42.536Z,68.90
2022-11-19T07:06:09.408Z,68.90
2022-11-19T07:08:37.793Z,68.70
2022-11-19T07:11:24.872Z,69.70
2022-11-19T07:13:57.467Z,68.60
2022-11-19T07:16:29.608Z,68.60
2022-11-19T07:19:01.733Z,69.00
2022-11-19T07:21:29.927Z,68.70
2022-11-19T07:24:00.056Z,68.60
2022-11-19T07:26:27.215Z,68.80
2022-11-19T07:28:54.121Z,69.00
2022-11-19T07:31:39.854Z,68.50
2022-11-19T07:34:10.935Z,68.60
2022-11-19T07:36:38.225Z,68.50
2022-11-19T07:39:06.141Z,68.50
2022-11-19T07:41:52.172Z,68.60
2022-11-19T07:44:19.354Z,68.50
2022-11-19T07:47:24.660Z,68.60
2022-11-19T07:49:51.561Z,68.60
2022-11-19T07:52:18.478Z,68.90
2022-11-19T07:54:45.321Z,68.90
2022-11-19T07:57:12.247Z,68.50
2022-11-19T07:59:39.092Z,68.00
2022-11-19T08:02:06.562Z,68.20
2022-11-19T08:04:33.628Z,68.20
2022-11-19T08:07:01.881Z,68.40
2022-11-19T08:09:28.854Z,68.60
2022-11-19T08:11:55.748Z,68.40
2022-11-19T08:14:22.932Z,68.60
2022-11-19T08:17:08.181Z,68.30
2022-11-19T08:19:35.090Z,68.20
2022-11-19T08:22:01.934Z,68.20
2022-11-19T08:24:29.398Z,68.00
2022-11-19T08:26:59.359Z,68.10
2022-11-19T08:29:26.288Z,68.30
2022-11-19T08:31:53.226Z,68.20
2022-11-19T08:34:20.227Z,69.10
2022-11-19T08:36:47.319Z,68.00
2022-11-19T08:39:14.140Z,68.10
2022-11-19T08:41:59.351Z,67.90
2022-11-19T08:44:26.298Z,67.80
2022-11-19T08:46:53.180Z,68.00
2022-11-19T08:49:20.130Z,68.00
2022-11-19T08:51:47.013Z,67.80
2022-11-19T08:54:13.970Z,68.10
2022-11-19T08:56:40.999Z,68.50
2022-11-19T08:59:07.963Z,68.10
2022-11-19T09:01:34.868Z,68.00
2022-11-19T09:04:01.751Z,68.60
2022-11-19T09:06:28.679Z,67.40
2022-11-19T09:08:55.623Z,67.60
2022-11-19T09:11:23.045Z,67.60
2022-11-19T09:13:50.194Z,67.40
2022-11-19T09:16:17.257Z,67.40
2022-11-19T09:18:44.161Z,67.50
2022-11-19T09:21:12.039Z,67.70
2022-11-19T09:23:39.538Z,67.80
2022-11-19T09:26:12.633Z,67.70
2022-11-19T09:28:40.464Z,67.70
2022-11-19T09:31:10.361Z,67.60
2022-11-19T09:33:39.136Z,67.50
2022-11-19T09:36:06.345Z,67.70
2022-11-19T09:38:35.162Z,67.80
2022-11-19T09:41:54.141Z,67.50
2022-11-19T09:44:26.032Z,67.10
2022-11-19T09:47:20.555Z,67.40
2022-11-19T09:50:06.196Z,67.60
2022-11-19T09:52:36.283Z,67.30
2022-11-19T09:55:03.389Z,67.20
2022-11-19T09:57:53.204Z,67.20
2022-11-19T10:00:29.100Z,67.20
2022-11-19T10:02:57.885Z,66.60
2022-11-19T10:05:46.296Z,67.00
2022-11-19T10:08:36.843Z,66.80
2022-11-19T10:11:29.843Z,66.50
2022-11-19T10:14:37.374Z,66.60
2022-11-19T10:17:46.680Z,66.90
2022-11-19T10:20:40.824Z,67.00
2022-11-19T10:23:29.404Z,66.80
2022-11-19T10:26:04.304Z,66.50
2022-11-19T10:28:35.820Z,66.00
2022-11-19T10:31:31.399Z,65.70
2022-11-19T10:34:07.506Z,65.80
2022-11-19T10:36:44.775Z,65.80
2022-11-19T10:39:42.855Z,65.80
2022-11-19T10:42:28.894Z,66.50
2022-11-19T10:44:58.159Z,65.80
2022-11-19T10:47:39.966Z,66.30
2022-11-19T10:50:11.302Z,65.90
2022-11-19T10:52:42.490Z,65.90
2022-11-19T10:55:39.562Z,65.80
2022-11-19T10:58:24.620Z,66.10
2022-11-19T11:00:55.293Z,65.80
2022-11-19T11:03:32.470Z,65.80
2022-11-19T11:06:05.397Z,65.20
2022-11-19T11:08:50.196Z,65.30
2022-11-19T11:11:50.344Z,65.00
2022-11-19T11:14:42.317Z,65.20
2022-11-19T11:17:26.904Z,65.20
2022-11-19T11:20:04.373Z,65.30
2022-11-19T11:22:31.968Z,65.50
2022-11-19T11:25:05.667Z,65.20
2022-11-19T11:27:35.733Z,65.00
2022-11-19T11:30:11.946Z,64.80
2022-11-19T11:32:40.056Z,64.90
2022-11-19T11:35:30.520Z,64.70
2022-11-19T11:37:57.612Z,64.70
2022-11-19T11:40:24.673Z,65.20
2022-11-19T11:42:53.156Z,64.40
2022-11-19T11:45:35.088Z,65.00
2022-11-19T11:48:17.802Z,64.40
2022-11-19T11:50:48.230Z,64.00
2022-11-19T11:53:17.295Z,63.60
2022-11-19T11:55:44.162Z,63.00
2022-11-19T11:58:46.606Z,63.40
2022-11-19T12:01:18.226Z,63.60
2022-11-19T12:03:55.098Z,63.50
2022-11-19T12:06:32.931Z,62.70
2022-11-19T12:09:15.274Z,62.60
2022-11-19T12:12:04.751Z,61.80
2022-11-19T12:14:36.722Z,61.20
2022-11-19T12:17:30.922Z,60.80
2022-11-19T12:20:20.771Z,60.30
2022-11-19T12:23:24.286Z,60.30
2022-11-19T12:26:12.858Z,60.10
2022-11-19T12:28:58.246Z,60.30
2022-11-19T12:31:52.867Z,60.60
2022-11-19T12:34:45.564Z,60.00
2022-11-19T12:37:28.347Z,60.40
2022-11-19T12:40:04.821Z,60.50
2022-11-19T12:42:37.495Z,60.20
2022-11-19T12:45:22.994Z,59.80
2022-11-19T12:48:04.687Z,58.90
2022-11-19T12:50:48.577Z,59.60
2022-11-19T12:53:30.153Z,59.80
2022-11-19T12:56:15.308Z,58.70
2022-11-19T12:58:42.130Z,58.70
2022-11-19T13:01:32.352Z,59.20
2022-11-19T13:04:06.630Z,58.60
2022-11-19T13:06:47.635Z,58.50
2022-11-19T13:09:40.883Z,59.00
2022-11-19T13:12:17.298Z,59.40
2022-11-19T13:14:55.096Z,59.00
2022-11-19T13:17:44.621Z,58.20
2022-11-19T13:20:50.697Z,59.00
2022-11-19T13:23:25.815Z,58.70
2022-11-19T13:26:00.683Z,59.00
2022-11-19T13:28:37.871Z,58.80
2022-11-19T13:31:31.229Z,58.40
2022-11-19T13:34:14.411Z,58.40
2022-11-19T13:36:55.055Z,59.00
2022-11-19T13:39:31.561Z,59.30
2022-11-19T13:42:19.643Z,58.70
2022-11-19T13:44:46.615Z,58.00
2022-11-19T13:47:19.555Z,57.30
2022-11-19T13:49:58.997Z,57.40
2022-11-19T13:52:38.313Z,56.80
2022-11-19T13:55:21.648Z,57.00
2022-11-19T13:57:49.163Z,56.80
2022-11-19T14:00:23.478Z,57.10
2022-11-19T14:03:17.661Z,57.40
2022-11-19T14:06:19.923Z,57.30
2022-11-19T14:09:12.055Z,56.20
2022-11-19T14:12:00.119Z,56.00
2022-11-19T14:14:51.619Z,55.50
2022-11-19T14:18:24.828Z,56.00
2022-11-19T14:21:10.397Z,55.50
2022-11-19T14:24:06.991Z,55.60
2022-11-19T14:26:39.976Z,55.50
2022-11-19T14:29:27.105Z,55.50
2022-11-19T14:32:03.261Z,55.70
2022-11-19T14:34:32.479Z,56.00
2022-11-19T14:37:05.194Z,55.90
2022-11-19T14:39:39.620Z,55.50
2022-11-19T14:42:16.753Z,55.30
2022-11-19T14:45:05.968Z,55.50
2022-11-19T14:47:40.492Z,55.70
2022-11-19T14:50:27.928Z,55.50
2022-11-19T14:52:57.642Z,56.20
2022-11-19T14:55:30.215Z,56.20
2022-11-19T14:58:02.047Z,56.10
2022-11-19T15:00:38.053Z,57.30
2022-11-19T15:03:08.592Z,56.30
2022-11-19T15:05:40.579Z,56.30
2022-11-19T15:08:19.667Z,55.90
2022-11-19T15:11:08.821Z,55.50
2022-11-19T15:13:39.194Z,55.00
2022-11-19T15:16:16.976Z,54.70
2022-11-19T15:19:00.142Z,54.00
2022-11-19T15:21:42.067Z,54.10
2022-11-19T15:24:39.581Z,54.50
2022-11-19T15:27:21.647Z,54.20
2022-11-19T15:30:19.510Z,54.70
2022-11-19T15:33:02.423Z,55.20
2022-11-19T15:35:38.271Z,54.80
2022-11-19T15:38:20.721Z,55.20
2022-11-19T15:40:51.337Z,56.00
2022-11-19T15:43:36.411Z,56.80
2022-11-19T15:46:30.235Z,57.30
2022-11-19T15:49:21.391Z,57.40
2022-11-19T15:52:11.850Z,55.20
2022-11-19T15:54:43.618Z,54.40
2022-11-19T15:57:16.722Z,56.50
2022-11-19T15:59:51.609Z,57.40
2022-11-19T16:02:29.472Z,57.20
2022-11-19T16:04:56.448Z,58.30
2022-11-19T16:07:25.223Z,57.90
2022-11-19T16:09:52.554Z,57.00
2022-11-19T16:12:43.889Z,58.40
2022-11-19T16:15:43.863Z,58.40
2022-11-19T16:18:19.674Z,58.30
2022-11-19T16:20:49.195Z,58.20
2022-11-19T16:23:19.945Z,58.60
2022-11-19T16:25:47.726Z,58.60
2022-11-19T16:28:23.000Z,59.00
2022-11-19T16:30:55.069Z,59.30
2022-11-19T16:33:24.525Z,58.40
2022-11-19T16:36:09.583Z,59.00
2022-11-19T16:38:38.173Z,59.40
2022-11-19T16:41:24.613Z,59.30
2022-11-19T16:43:52.190Z,58.60
2022-11-19T16:46:22.266Z,58.50
2022-11-19T16:48:49.134Z,58.50
2022-11-19T16:51:50.431Z,58.20
2022-11-19T16:54:47.474Z,57.90
2022-11-19T16:57:23.250Z,58.30
2022-11-19T16:59:53.023Z,58.00
2022-11-19T17:02:22.692Z,58.30
2022-11-19T17:04:56.030Z,58.30
2022-11-19T17:07:26.549Z,58.60
2022-11-19T17:10:27.227Z,58.00
2022-11-19T17:13:21.839Z,57.30
2022-11-19T17:15:50.104Z,57.30
2022-11-19T17:18:34.324Z,57.70
2022-11-19T17:21:06.651Z,57.80
2022-11-19T17:23:45.977Z,57.40
2022-11-19T17:26:18.342Z,57.80
2022-11-19T17:28:50.475Z,57.40
2022-11-19T17:31:28.773Z,57.70
2022-11-19T17:33:58.209Z,58.10
2022-11-19T17:36:26.494Z,58.40
2022-11-19T17:38:53.934Z,59.20
2022-11-19T17:41:45.550Z,58.90
2022-11-19T17:44:36.505Z,58.60
2022-11-19T17:47:23.147Z,58.90
2022-11-19T17:49:51.209Z,58.80
2022-11-19T17:52:30.112Z,59.30
2022-11-19T17:55:15.758Z,59.60
2022-11-19T17:57:42.965Z,59.60
2022-11-19T18:00:10.620Z,59.30
2022-11-19T18:02:37.539Z,59.10
2022-11-19T18:05:15.154Z,58.70
2022-11-19T18:07:42.176Z,58.70
2022-11-19T18:10:09.616Z,58.80
2022-11-19T18:12:36.509Z,58.40
2022-11-19T18:15:04.282Z,58.70
2022-11-19T18:17:31.112Z,59.70
2022-11-19T18:19:57.976Z,58.50
2022-11-19T18:22:24.874Z,58.10
2022-11-19T18:24:52.611Z,58.50
2022-11-19T18:27:19.549Z,58.70
2022-11-19T18:29:46.472Z,58.70
2022-11-19T18:32:16.002Z,59.10
2022-11-19T18:34:44.572Z,58.40
2022-11-19T18:37:12.307Z,58.40
2022-11-19T18:39:39.162Z,58.20
2022-11-19T18:42:06.010Z,58.30
2022-11-19T18:44:35.773Z,58.70
2022-11-19T18:47:14.612Z,59.00
2022-11-19T18:49:42.018Z,58.90
2022-11-19T18:52:14.574Z,59.30
2022-11-19T18:54:41.504Z,59.70
2022-11-19T18:57:09.812Z,59.80
2022-11-19T18:59:36.618Z,60.10
2022-11-19T19:02:03.623Z,60.00
2022-11-19T19:04:30.565Z,59.50
2022-11-19T19:06:59.243Z,59.60
2022-11-19T19:09:26.539Z,59.70
2022-11-19T19:12:13.734Z,59.60
2022-11-19T19:14:42.325Z,59.70
2022-11-19T19:17:09.951Z,60.00
2022-11-19T19:19:36.794Z,60.00
2022-11-19T19:22:04.811Z,60.10
2022-11-19T19:24:32.523Z,60.00
2022-11-19T19:27:00.169Z,60.10
2022-11-19T19:29:27.433Z,60.20
2022-11-19T19:31:54.422Z,60.20
2022-11-19T19:34:21.345Z,59.80
2022-11-19T19:36:53.009Z,60.60
2022-11-19T19:39:20.672Z,59.50
2022-11-19T19:41:49.177Z,59.60
2022-11-19T19:44:16.210Z,59.40
2022-11-19T19:46:43.015Z,59.70
2022-11-19T19:49:09.886Z,59.70
2022-11-19T19:51:36.855Z,59.50
2022-11-19T19:54:03.920Z,59.50
2022-11-19T19:56:32.793Z,59.20
2022-11-19T19:59:01.106Z,59.70
2022-11-19T20:01:30.551Z,59.50
2022-11-19T20:04:03.473Z,60.00
2022-11-19T20:06:31.114Z,59.70
2022-11-19T20:08:58.382Z,59.70
2022-11-19T20:11:26.392Z,59.60
2022-11-19T20:13:55.339Z,59.80
2022-11-19T20:16:24.929Z,60.10
2022-11-19T20:18:52.995Z,60.70
2022-11-19T20:21:28.500Z,61.10
2022-11-19T20:23:55.656Z,61.40
2022-11-19T20:26:25.140Z,60.80
2022-11-19T20:29:00.016Z,60.50
2022-11-19T20:31:28.773Z,61.10
2022-11-19T20:34:01.109Z,61.00
2022-11-19T20:36:31.287Z,60.70
2022-11-19T20:38:58.939Z,61.20
2022-11-19T20:41:45.376Z,61.40
2022-11-19T20:44:26.017Z,61.30
2022-11-19T20:46:59.790Z,61.30
2022-11-19T20:49:29.392Z,60.80
2022-11-19T20:51:56.948Z,60.70
2022-11-19T20:54:24.712Z,61.10
2022-11-19T20:56:53.579Z,61.00
2022-11-19T20:59:21.576Z,61.00
2022-11-19T21:01:49.917Z,60.90
2022-11-19T21:04:17.025Z,61.00
2022-11-19T21:06:43.977Z,61.10
2022-11-19T21:09:10.980Z,60.80
2022-11-19T21:11:38.327Z,61.00
2022-11-19T21:14:05.530Z,60.80
2022-11-19T21:16:32.983Z,61.00
2022-11-19T21:19:00.014Z,61.10
2022-11-19T21:21:27.848Z,61.00
2022-11-19T21:23:54.834Z,60.80
2022-11-19T21:26:23.975Z,60.80
2022-11-19T21:28:53.147Z,60.60
2022-11-19T21:31:37.989Z,60.20
2022-11-19T21:34:09.069Z,60.30
2022-11-19T21:36:36.873Z,60.80
2022-11-19T21:39:07.804Z,60.60
2022-11-19T21:41:35.268Z,60.90
2022-11-19T21:44:03.028Z,60.90
2022-11-19T21:46:29.932Z,60.80
2022-11-19T21:48:57.106Z,60.60
2022-11-19T21:51:25.203Z,60.40
2022-11-19T21:53:59.011Z,60.70
2022-11-19T21:56:27.363Z,60.80
2022-11-19T21:58:54.440Z,60.80
2022-11-19T22:01:21.679Z,60.90
2022-11-19T22:03:48.512Z,61.10
2022-11-19T22:06:15.882Z,61.10
2022-11-19T22:08:43.197Z,61.10
2022-11-19T22:11:29.585Z,61.30
2022-11-19T22:14:05.436Z,61.30
2022-11-19T22:16:35.725Z,61.70
2022-11-19T22:19:03.131Z,60.80
2022-11-19T22:21:30.089Z,60.40
2022-11-19T22:23:57.496Z,60.80
2022-11-19T22:26:24.993Z,61.10
2022-11-19T22:28:51.902Z,61.00
2022-11-19T22:31:18.862Z,61.20
2022-11-19T22:33:47.860Z,61.30
2022-11-19T22:36:14.714Z,61.50
2022-11-19T22:38:41.538Z,61.40
2022-11-19T22:41:10.847Z,61.50
2022-11-19T22:43:38.687Z,61.40
2022-11-19T22:46:06.518Z,61.40
2022-11-19T22:48:33.662Z,61.40
2022-11-19T22:51:09.071Z,61.70
2022-11-19T22:53:37.101Z,61.70
2022-11-19T22:56:06.371Z,61.70
2022-11-19T22:58:33.709Z,61.60
2022-11-19T23:01:00.859Z,61.70
2022-11-19T23:03:27.841Z,61.70
2022-11-19T23:05:55.189Z,61.40
2022-11-19T23:08:22.498Z,61.70
2022-11-19T23:10:56.558Z,61.90
2022-11-19T23:13:32.430Z,61.60
2022-11-19T23:15:59.752Z,61.60
2022-11-19T23:18:27.849Z,61.80
2022-11-19T23:21:15.064Z,62.00
2022-11-19T23:23:42.693Z,62.10
2022-11-19T23:26:11.930Z,62.40
2022-11-19T23:28:39.504Z,62.10
2022-11-19T23:31:18.604Z,61.80
2022-11-19T23:33:46.068Z,61.90
2022-11-19T23:36:15.693Z,62.80
2022-11-19T23:38:43.354Z,61.90
2022-11-19T23:41:12.475Z,62.20
2022-11-19T23:43:39.796Z,62.20
2022-11-19T23:46:10.116Z,62.30
2022-11-19T23:48:38.498Z,62.40
2022-11-19T23:51:11.778Z,62.40
2022-11-19T23:53:38.700Z,62.60
2022-11-19T23:56:06.234Z,62.60
2022-11-19T23:58:34.036Z,62.50
